createdAt,value
2023-08-10T00:01:49.868Z,11.75
2023-08-10T00:04:20.142Z,9.35
2023-08-10T00:06:48.564Z,10.77
2023-08-10T00:09:17.046Z,8.95
2023-08-10T00:11:45.500Z,12.30
2023-08-10T00:14:13.917Z,10.13
2023-08-10T00:16:42.492Z,12.32
2023-08-10T00:19:10.887Z,10.93
2023-08-10T00:21:40.691Z,9.55
2023-08-10T00:24:09.376Z,8.90
2023-08-10T00:26:37.820Z,9.43
2023-08-10T00:29:06.374Z,12.70
2023-08-10T00:31:34.815Z,10.55
2023-08-10T00:34:03.234Z,9.60
2023-08-10T00:36:31.670Z,8.07
2023-08-10T00:39:01.528Z,10.70
2023-08-10T00:41:30.308Z,10.25
2023-08-10T00:43:59.191Z,9.32
2023-08-10T00:46:28.911Z,9.05
2023-08-10T00:48:57.393Z,9.40
2023-08-10T00:51:25.816Z,10.25
2023-08-10T00:53:54.298Z,11.68
2023-08-10T00:56:24.131Z,8.75
2023-08-10T00:58:53.039Z,10.82
2023-08-10T01:01:21.460Z,9.07
2023-08-10T01:03:50.012Z,13.10
2023-08-10T01:06:21.382Z,7.30
2023-08-10T01:09:07.763Z,9.68
2023-08-10T01:11:41.787Z,8.77
2023-08-10T01:14:14.671Z,8.77
2023-08-10T01:19:19.604Z,11.13
2023-08-10T01:21:52.442Z,9.85
2023-08-10T01:26:52.447Z,7.13
2023-08-10T01:29:22.238Z,11.68
2023-08-10T01:31:50.774Z,8.82
2023-08-10T01:34:19.795Z,7.35
2023-08-10T01:36:48.340Z,11.38
2023-08-10T01:39:17.997Z,8.98
2023-08-10T01:41:46.466Z,11.57
2023-08-10T01:44:16.267Z,9.68
2023-08-10T01:46:46.786Z,9.93
2023-08-10T01:49:16.398Z,11.18
2023-08-10T01:51:46.406Z,9.82
2023-08-10T01:54:15.362Z,8.70
2023-08-10T01:56:43.841Z,14.07
2023-08-10T01:59:12.320Z,13.82
2023-08-10T02:01:42.161Z,13.65
2023-08-10T02:04:10.678Z,13.45
2023-08-10T02:06:41.669Z,13.70
2023-08-10T02:09:10.265Z,10.27
2023-08-10T02:11:38.697Z,12.10
2023-08-10T02:14:07.265Z,16.92
2023-08-10T02:16:36.391Z,14.50
2023-08-10T02:19:08.685Z,10.30
2023-08-10T02:21:38.076Z,15.48
2023-08-10T02:24:07.021Z,14.98
2023-08-10T02:26:35.819Z,10.88
2023-08-10T02:29:04.233Z,11.73
2023-08-10T02:31:34.347Z,8.82
2023-08-10T02:34:02.857Z,10.10
2023-08-10T02:36:32.663Z,15.88
2023-08-10T02:39:01.765Z,12.23
2023-08-10T02:41:30.263Z,11.93
2023-08-10T02:43:58.766Z,7.53
2023-08-10T02:46:27.363Z,9.90
2023-08-10T02:48:56.035Z,12.32
2023-08-10T02:51:24.451Z,11.00
2023-08-10T02:53:54.281Z,8.45
2023-08-10T02:56:22.737Z,9.23
2023-08-10T02:58:51.227Z,9.93
2023-08-10T03:01:19.857Z,10.85
2023-08-10T03:03:48.341Z,7.65
2023-08-10T03:06:16.765Z,12.85
2023-08-10T03:08:45.698Z,10.63
2023-08-10T03:11:17.216Z,7.97
2023-08-10T03:13:45.637Z,13.65
2023-08-10T03:16:14.082Z,7.05
2023-08-10T03:18:42.472Z,7.63
2023-08-10T03:21:11.385Z,11.55
2023-08-10T03:23:39.816Z,10.48
2023-08-10T03:26:08.217Z,9.07
2023-08-10T03:28:38.217Z,11.52
2023-08-10T03:31:07.303Z,12.15
2023-08-10T03:33:38.986Z,15.02
2023-08-10T03:36:07.715Z,15.25
2023-08-10T03:38:36.435Z,16.23
2023-08-10T03:41:05.399Z,16.60
2023-08-10T03:43:34.220Z,13.13
2023-08-10T03:46:07.029Z,18.90
2023-08-10T03:48:36.861Z,16.08
2023-08-10T03:51:05.825Z,9.20
2023-08-10T03:53:34.290Z,10.48
2023-08-10T03:56:02.746Z,16.05
2023-08-10T03:58:31.261Z,13.98
2023-08-10T04:00:59.886Z,17.38
2023-08-10T04:03:29.978Z,13.15
2023-08-10T04:05:58.457Z,15.65
2023-08-10T04:08:26.895Z,18.40
2023-08-10T04:10:55.504Z,20.13
2023-08-10T04:13:23.966Z,17.88
2023-08-10T04:15:52.350Z,11.13
2023-08-10T04:18:20.838Z,8.95
2023-08-10T04:20:51.602Z,9.18
2023-08-10T04:23:20.686Z,10.10
2023-08-10T04:25:49.156Z,15.77
2023-08-10T04:28:17.702Z,18.00
2023-08-10T04:30:47.506Z,10.25
2023-08-10T04:33:16.000Z,8.93
2023-08-10T04:35:44.429Z,9.50
2023-08-10T04:38:14.208Z,12.57
2023-08-10T04:40:43.695Z,9.88
2023-08-10T04:43:12.796Z,7.10
2023-08-10T04:45:42.804Z,10.43
2023-08-10T04:48:11.540Z,8.75
2023-08-10T04:50:39.999Z,11.55
2023-08-10T04:53:08.441Z,9.40
2023-08-10T04:55:38.217Z,13.00
2023-08-10T04:58:06.752Z,7.72
2023-08-10T05:00:35.301Z,7.80
2023-08-10T05:03:03.843Z,14.15
2023-08-10T05:05:32.482Z,11.60
2023-08-10T05:08:00.979Z,12.77
2023-08-10T05:10:29.405Z,10.40
2023-08-10T05:12:59.243Z,9.68
2023-08-10T05:15:27.719Z,13.80
2023-08-10T05:17:56.883Z,12.00
2023-08-10T05:20:25.756Z,10.77
2023-08-10T05:22:54.177Z,11.52
2023-08-10T05:25:22.556Z,17.33
2023-08-10T05:27:51.032Z,8.60
2023-08-10T05:30:20.806Z,11.23
2023-08-10T05:32:49.313Z,16.27
2023-08-10T05:35:18.726Z,14.75
2023-08-10T05:37:47.130Z,9.00
2023-08-10T05:40:15.614Z,11.63
2023-08-10T05:42:44.695Z,9.27
2023-08-10T05:45:16.992Z,14.05
2023-08-10T05:47:47.340Z,12.80
2023-08-10T05:50:16.692Z,18.50
2023-08-10T05:52:46.081Z,12.15
2023-08-10T05:55:15.608Z,12.27
2023-08-10T05:57:44.204Z,13.90
2023-08-10T06:00:15.278Z,14.38
2023-08-10T06:02:44.336Z,16.92
2023-08-10T06:05:14.553Z,10.43
2023-08-10T06:07:43.047Z,9.45
2023-08-10T06:10:11.679Z,11.55
2023-08-10T06:12:40.182Z,10.10
2023-08-10T06:15:08.966Z,13.38
2023-08-10T06:17:37.420Z,11.52
2023-08-10T06:20:10.756Z,10.60
2023-08-10T06:22:40.834Z,13.82
2023-08-10T06:25:10.392Z,13.07
2023-08-10T06:27:39.119Z,11.05
2023-08-10T06:30:08.316Z,17.25
2023-08-10T06:32:37.223Z,15.88
2023-08-10T06:35:05.923Z,11.25
2023-08-10T06:37:34.976Z,9.65
2023-08-10T06:40:08.514Z,8.52
2023-08-10T06:42:38.101Z,14.02
2023-08-10T06:45:14.176Z,10.82
2023-08-10T06:47:42.833Z,7.97
2023-08-10T06:50:11.577Z,7.35
2023-08-10T06:52:40.707Z,12.60
2023-08-10T06:55:12.947Z,15.90
2023-08-10T06:57:43.178Z,12.18
2023-08-10T07:02:55.351Z,14.48
2023-08-10T07:05:25.375Z,14.13
2023-08-10T07:07:53.851Z,14.38
2023-08-10T07:10:23.706Z,15.75
2023-08-10T07:12:52.287Z,10.82
2023-08-10T07:15:20.812Z,15.85
2023-08-10T07:17:49.231Z,13.90
2023-08-10T07:20:19.925Z,12.85
2023-08-10T07:22:48.857Z,10.93
2023-08-10T07:25:18.590Z,9.77
2023-08-10T07:27:49.251Z,8.88
2023-08-10T07:30:18.104Z,10.60
2023-08-10T07:32:46.726Z,12.35
2023-08-10T07:35:15.330Z,18.08
2023-08-10T07:37:43.746Z,14.38
2023-08-10T07:40:13.212Z,9.95
2023-08-10T07:42:41.676Z,14.23
2023-08-10T07:45:11.983Z,8.23
2023-08-10T07:47:40.868Z,15.48
2023-08-10T07:50:09.613Z,14.27
2023-08-10T07:52:38.130Z,7.78
2023-08-10T07:55:06.892Z,9.70
2023-08-10T07:57:35.328Z,10.02
2023-08-10T08:00:06.668Z,11.10
2023-08-10T08:02:42.726Z,10.93
2023-08-10T08:05:11.341Z,11.95
2023-08-10T08:07:39.943Z,10.43
2023-08-10T08:10:08.737Z,10.52
2023-08-10T08:12:37.208Z,9.00
2023-08-10T08:15:05.990Z,9.82
2023-08-10T08:17:55.041Z,13.68
2023-08-10T08:20:24.913Z,8.82
2023-08-10T08:22:53.402Z,9.18
2023-08-10T08:25:21.877Z,9.93
2023-08-10T08:27:50.331Z,7.35
2023-08-10T08:30:18.914Z,9.35
2023-08-10T08:32:51.638Z,11.00
2023-08-10T08:35:20.683Z,10.30
2023-08-10T08:37:50.525Z,8.35
2023-08-10T08:40:19.112Z,8.73
2023-08-10T08:42:50.081Z,10.50
2023-08-10T08:45:18.657Z,7.50
2023-08-10T08:47:47.355Z,5.35
2023-08-10T08:50:17.469Z,9.02
2023-08-10T08:52:46.406Z,8.60
2023-08-10T08:55:17.050Z,12.73
2023-08-10T08:57:46.620Z,8.52
2023-08-10T09:00:15.433Z,9.25
2023-08-10T09:02:44.345Z,15.75
2023-08-10T09:05:13.006Z,9.02
2023-08-10T09:07:41.544Z,7.53
2023-08-10T09:10:10.279Z,7.07
2023-08-10T09:12:40.875Z,9.15
2023-08-10T09:15:10.506Z,10.18
2023-08-10T09:17:40.115Z,7.57
2023-08-10T09:20:10.248Z,10.73
2023-08-10T09:22:39.750Z,11.80
2023-08-10T09:25:09.502Z,7.72
2023-08-10T09:27:38.081Z,9.80
2023-08-10T09:30:09.136Z,12.18
2023-08-10T09:32:37.926Z,13.65
2023-08-10T09:35:07.446Z,9.27
2023-08-10T09:37:35.871Z,10.00
2023-08-10T09:40:07.673Z,7.93
2023-08-10T09:42:36.729Z,6.40
2023-08-10T09:45:09.540Z,11.38
2023-08-10T09:47:38.535Z,9.52
2023-08-10T09:50:08.278Z,14.95
2023-08-10T09:52:37.636Z,9.18
2023-08-10T09:55:06.768Z,12.35
2023-08-10T09:57:36.225Z,10.00
2023-08-10T10:00:08.978Z,10.05
2023-08-10T10:02:39.567Z,8.25
2023-08-10T10:05:10.826Z,8.90
2023-08-10T10:07:43.885Z,9.88
2023-08-10T10:10:16.999Z,7.90
2023-08-10T10:12:45.974Z,13.00
2023-08-10T10:15:14.624Z,7.50
2023-08-10T10:17:44.527Z,10.75
2023-08-10T10:20:13.483Z,7.90
2023-08-10T10:22:41.980Z,9.43
2023-08-10T10:25:16.727Z,9.52
2023-08-10T10:27:49.102Z,9.05
2023-08-10T10:30:18.705Z,12.50
2023-08-10T10:32:49.443Z,6.53
2023-08-10T10:35:18.294Z,10.40
2023-08-10T10:37:56.145Z,7.22
2023-08-10T10:40:25.247Z,10.55
2023-08-10T10:43:09.977Z,8.45
2023-08-10T10:45:39.186Z,14.40
2023-08-10T10:48:09.099Z,6.40
2023-08-10T10:50:37.827Z,9.88
2023-08-10T10:53:07.241Z,10.60
2023-08-10T10:55:43.390Z,7.70
2023-08-10T10:58:13.009Z,6.28
2023-08-10T11:00:42.203Z,14.57
2023-08-10T11:03:14.401Z,7.22
2023-08-10T11:05:42.893Z,8.80
2023-08-10T11:08:13.201Z,9.15
2023-08-10T11:10:44.776Z,6.55
2023-08-10T11:13:13.312Z,13.40
2023-08-10T11:15:41.825Z,5.50
2023-08-10T11:18:15.390Z,9.38
2023-08-10T11:20:45.132Z,7.25
2023-08-10T11:23:13.728Z,6.55
2023-08-10T11:25:49.322Z,11.80
2023-08-10T11:28:19.116Z,8.57
2023-08-10T11:30:48.052Z,10.00
2023-08-10T11:35:52.957Z,5.20
2023-08-10T11:38:21.602Z,9.25
2023-08-10T11:40:50.085Z,13.07
2023-08-10T11:43:21.368Z,11.27
2023-08-10T11:45:51.078Z,8.65
2023-08-10T11:48:21.522Z,12.48
2023-08-10T11:50:51.931Z,6.22
2023-08-10T11:53:22.649Z,8.73
2023-08-10T11:55:51.868Z,10.30
2023-08-10T11:58:20.809Z,8.48
2023-08-10T12:00:50.811Z,9.45
2023-08-10T12:03:25.432Z,8.13
2023-08-10T12:05:54.756Z,6.85
2023-08-10T12:08:27.116Z,7.45
2023-08-10T12:11:01.833Z,7.93
2023-08-10T12:13:30.400Z,7.95
2023-08-10T12:16:00.869Z,7.85
2023-08-10T12:18:30.801Z,12.35
2023-08-10T12:20:59.798Z,6.95
2023-08-10T12:23:28.186Z,8.95
2023-08-10T12:25:56.696Z,10.23
2023-08-10T12:28:25.077Z,8.98
2023-08-10T12:30:53.611Z,10.52
2023-08-10T12:33:22.346Z,11.43
2023-08-10T12:35:52.338Z,6.45
2023-08-10T12:38:21.569Z,8.27
2023-08-10T12:40:50.068Z,4.85
2023-08-10T12:43:18.774Z,9.80
2023-08-10T12:45:47.815Z,7.72
2023-08-10T12:48:16.227Z,8.68
2023-08-10T12:50:44.683Z,4.95
2023-08-10T12:53:14.511Z,8.35
2023-08-10T12:55:42.927Z,6.07
2023-08-10T12:58:15.471Z,7.35
2023-08-10T13:03:12.415Z,7.93
2023-08-10T13:05:41.453Z,8.68
2023-08-10T13:08:10.039Z,9.13
2023-08-10T13:10:40.546Z,9.60
2023-08-10T13:13:09.100Z,8.55
2023-08-10T13:15:38.275Z,8.25
2023-08-10T13:18:07.235Z,9.85
2023-08-10T13:20:37.917Z,10.50
2023-08-10T13:23:06.744Z,9.45
2023-08-10T13:25:35.241Z,9.63
2023-08-10T13:28:05.177Z,7.78
2023-08-10T13:30:35.463Z,10.55
2023-08-10T13:33:03.989Z,7.30
2023-08-10T13:35:32.553Z,7.82
2023-08-10T13:38:01.119Z,6.78
2023-08-10T13:40:29.633Z,7.65
2023-08-10T13:42:58.174Z,9.90
2023-08-10T13:45:28.129Z,6.25
2023-08-10T13:47:56.601Z,7.25
2023-08-10T13:50:25.134Z,7.82
2023-08-10T13:52:53.537Z,5.70
2023-08-10T13:55:22.137Z,11.18
2023-08-10T13:57:50.596Z,13.10
2023-08-10T14:00:19.476Z,9.40
2023-08-10T14:02:49.403Z,10.25
2023-08-10T14:05:17.979Z,7.40
2023-08-10T14:07:46.380Z,4.97
2023-08-10T14:10:14.906Z,12.13
2023-08-10T14:12:44.330Z,8.90
2023-08-10T14:15:13.135Z,13.02
2023-08-10T14:17:41.662Z,6.63
2023-08-10T14:20:12.660Z,13.07
2023-08-10T14:22:41.113Z,6.65
2023-08-10T14:25:10.681Z,7.68
2023-08-10T14:27:39.177Z,4.07
2023-08-10T14:30:08.394Z,12.05
2023-08-10T14:32:37.003Z,6.95
2023-08-10T14:35:05.784Z,7.07
2023-08-10T14:37:35.568Z,9.57
2023-08-10T14:40:04.596Z,6.05
2023-08-10T14:42:33.037Z,16.95
2023-08-10T14:45:01.476Z,5.75
2023-08-10T14:47:30.272Z,6.85
2023-08-10T14:49:58.834Z,7.57
2023-08-10T14:52:27.305Z,5.35
2023-08-10T14:55:05.129Z,8.07
2023-08-10T14:57:40.768Z,9.10
2023-08-10T15:00:09.804Z,6.03
2023-08-10T15:02:38.314Z,6.60
2023-08-10T15:05:07.320Z,14.32
2023-08-10T15:07:35.751Z,10.20
2023-08-10T15:10:05.791Z,7.00
2023-08-10T15:12:34.908Z,5.82
2023-08-10T15:15:06.146Z,6.22
2023-08-10T15:17:34.721Z,6.78
2023-08-10T15:20:03.219Z,5.28
2023-08-10T15:22:31.741Z,7.47
2023-08-10T15:25:00.217Z,3.10
2023-08-10T15:27:30.004Z,8.15
2023-08-10T15:29:58.590Z,11.25
2023-08-10T15:32:27.900Z,8.90
2023-08-10T15:34:56.396Z,9.13
2023-08-10T15:37:24.955Z,11.07
2023-08-10T15:39:53.843Z,13.00
2023-08-10T15:42:22.239Z,11.30
2023-08-10T15:44:53.875Z,6.38
2023-08-10T15:47:22.695Z,7.93
2023-08-10T15:49:51.223Z,7.45
2023-08-10T15:52:19.687Z,5.78
2023-08-10T15:54:48.123Z,5.68
2023-08-10T15:57:16.628Z,8.02
2023-08-10T15:59:45.073Z,7.43
2023-08-10T16:02:15.081Z,7.85
2023-08-10T16:04:43.646Z,10.98
2023-08-10T16:07:12.170Z,6.60
2023-08-10T16:09:40.622Z,5.97
2023-08-10T16:12:09.629Z,14.00
2023-08-10T16:14:38.372Z,5.85
2023-08-10T16:17:06.940Z,4.68
2023-08-10T16:19:36.840Z,6.68
2023-08-10T16:22:05.628Z,7.88
2023-08-10T16:24:34.444Z,6.57
2023-08-10T16:27:03.419Z,15.20
2023-08-10T16:29:31.877Z,7.55
2023-08-10T16:32:00.417Z,9.30
2023-08-10T16:34:29.215Z,21.15
2023-08-10T16:36:59.042Z,11.25
2023-08-10T16:39:27.693Z,8.07
2023-08-10T16:41:56.272Z,19.20
2023-08-10T16:44:24.816Z,9.45
2023-08-10T16:46:54.148Z,9.05
2023-08-10T16:49:22.797Z,7.60
2023-08-10T16:52:02.626Z,8.55
2023-08-10T16:54:31.122Z,5.28
2023-08-10T16:56:59.683Z,7.40
2023-08-10T16:59:28.128Z,8.15
2023-08-10T17:01:57.076Z,7.97
2023-08-10T17:04:25.734Z,8.55
2023-08-10T17:06:54.225Z,8.57
2023-08-10T17:09:24.012Z,6.88
2023-08-10T17:11:52.393Z,6.75
2023-08-10T17:14:20.861Z,5.90
2023-08-10T17:16:49.310Z,7.63
2023-08-10T17:19:17.736Z,11.70
2023-08-10T17:21:46.249Z,6.55
2023-08-10T17:24:14.664Z,8.32
2023-08-10T17:26:44.630Z,9.80
2023-08-10T17:29:20.526Z,5.78
2023-08-10T17:31:50.340Z,6.90
2023-08-10T17:34:18.836Z,10.02
2023-08-10T17:36:47.331Z,10.02
2023-08-10T17:39:16.353Z,8.60
2023-08-10T17:41:47.606Z,11.70
2023-08-10T17:44:16.211Z,8.95
2023-08-10T17:46:44.713Z,10.23
2023-08-10T17:49:13.165Z,13.45
2023-08-10T17:51:41.638Z,15.88
2023-08-10T17:54:10.163Z,13.50
2023-08-10T17:56:38.664Z,14.52
2023-08-10T17:59:08.597Z,12.95
2023-08-10T18:01:37.414Z,11.40
2023-08-10T18:04:06.530Z,12.65
2023-08-10T18:06:35.041Z,11.57
2023-08-10T18:09:03.468Z,6.53
2023-08-10T18:11:31.917Z,10.50
2023-08-10T18:14:02.295Z,32.67
2023-08-10T18:16:32.366Z,13.65
2023-08-10T18:19:00.832Z,12.68
2023-08-10T18:21:29.356Z,13.00
2023-08-10T18:23:59.223Z,10.18
2023-08-10T18:26:29.862Z,10.93
2023-08-10T18:28:58.293Z,13.80
2023-08-10T18:31:27.524Z,11.32
2023-08-10T18:33:57.417Z,12.02
2023-08-10T18:36:25.934Z,13.50
2023-08-10T18:38:54.417Z,11.27
2023-08-10T18:41:22.889Z,11.95
2023-08-10T18:43:53.218Z,12.95
2023-08-10T18:46:21.713Z,10.75
2023-08-10T18:48:50.175Z,9.13
2023-08-10T18:51:19.937Z,10.05
2023-08-10T18:53:48.445Z,10.82
2023-08-10T18:56:16.935Z,12.18
2023-08-10T18:58:45.362Z,13.35
2023-08-10T19:01:13.823Z,15.10
2023-08-10T19:03:42.345Z,17.60
2023-08-10T19:06:11.133Z,17.95
2023-08-10T19:08:40.921Z,16.75
2023-08-10T19:11:09.372Z,19.30
2023-08-10T19:13:37.951Z,18.40
2023-08-10T19:16:07.295Z,26.25
2023-08-10T19:18:36.219Z,17.80
2023-08-10T19:21:05.409Z,16.48
2023-08-10T19:23:33.836Z,15.85
2023-08-10T19:26:03.743Z,22.75
2023-08-10T19:28:32.289Z,16.05
2023-08-10T19:31:04.863Z,20.48
2023-08-10T19:33:35.095Z,23.10
2023-08-10T19:36:04.495Z,23.40
2023-08-10T19:38:34.639Z,19.13
2023-08-10T19:41:04.990Z,27.38
2023-08-10T19:43:34.371Z,20.30
2023-08-10T19:46:02.877Z,24.50
2023-08-10T19:48:31.396Z,20.42
2023-08-10T19:51:00.006Z,22.30
2023-08-10T19:53:28.488Z,22.52
2023-08-10T19:55:56.943Z,21.25
2023-08-10T19:58:27.518Z,21.73
2023-08-10T20:00:58.101Z,19.70
2023-08-10T20:03:31.472Z,26.33
2023-08-10T20:05:59.979Z,22.10
2023-08-10T20:08:28.417Z,24.27
2023-08-10T20:10:56.855Z,26.20
2023-08-10T20:13:26.568Z,26.13
2023-08-10T20:15:55.220Z,24.58
2023-08-10T20:18:24.304Z,28.40
2023-08-10T20:20:53.083Z,23.25
2023-08-10T20:23:22.328Z,24.13
2023-08-10T20:25:51.994Z,20.70
2023-08-10T20:28:20.812Z,22.73
2023-08-10T20:31:01.254Z,20.75
2023-08-10T20:33:30.017Z,21.38
2023-08-10T20:35:58.394Z,23.20
2023-08-10T20:38:26.825Z,23.17
2023-08-10T20:40:56.144Z,24.23
2023-08-10T20:43:24.588Z,25.30
2023-08-10T20:45:54.721Z,21.30
2023-08-10T20:48:23.145Z,21.75
2023-08-10T20:50:54.594Z,39.95
2023-08-10T20:53:23.105Z,28.55
2023-08-10T20:55:51.538Z,23.58
2023-08-10T20:58:19.936Z,27.73
2023-08-10T21:00:48.363Z,21.08
2023-08-10T21:03:19.291Z,23.45
2023-08-10T21:05:48.021Z,20.05
2023-08-10T21:08:16.722Z,21.83
2023-08-10T21:10:45.607Z,20.48
2023-08-10T21:13:14.249Z,17.25
2023-08-10T21:15:42.772Z,21.17
2023-08-10T21:18:11.184Z,20.90
2023-08-10T21:20:40.986Z,19.83
2023-08-10T21:23:09.448Z,27.48
2023-08-10T21:25:37.907Z,32.72
2023-08-10T21:28:06.686Z,21.13
2023-08-10T21:30:35.130Z,19.27
2023-08-10T21:33:03.691Z,23.65
2023-08-10T21:35:32.222Z,27.40
2023-08-10T21:38:02.122Z,25.10
2023-08-10T21:40:30.628Z,23.73
2023-08-10T21:42:59.384Z,23.10
2023-08-10T21:45:27.888Z,20.35
2023-08-10T21:47:56.333Z,31.42
2023-08-10T21:50:24.801Z,26.50
2023-08-10T21:52:53.366Z,27.52
2023-08-10T21:55:23.295Z,35.88
2023-08-10T21:57:51.760Z,29.02
2023-08-10T22:00:22.880Z,23.27
2023-08-10T22:02:51.631Z,22.20
2023-08-10T22:05:20.233Z,22.08
2023-08-10T22:07:48.701Z,17.92
2023-08-10T22:10:17.159Z,16.58
2023-08-10T22:12:46.986Z,19.38
2023-08-10T22:15:15.459Z,16.65
2023-08-10T22:17:44.006Z,17.98
2023-08-10T22:20:13.621Z,21.27
2023-08-10T22:22:57.798Z,19.73
2023-08-10T22:25:32.507Z,15.13
2023-08-10T22:28:04.340Z,16.50
2023-08-10T22:30:33.301Z,21.87
2023-08-10T22:33:01.876Z,18.90
2023-08-10T22:35:30.635Z,18.45
2023-08-10T22:37:59.308Z,19.02
2023-08-10T22:40:27.873Z,19.98
2023-08-10T22:42:56.365Z,18.65
2023-08-10T22:45:26.210Z,18.52
2023-08-10T22:47:54.637Z,18.90
2023-08-10T22:50:23.618Z,17.05
2023-08-10T22:52:52.024Z,20.30
2023-08-10T22:55:20.767Z,19.17
2023-08-10T22:57:49.468Z,16.08
2023-08-10T23:00:18.254Z,16.63
2023-08-10T23:02:48.283Z,21.60
2023-08-10T23:05:16.873Z,21.92
2023-08-10T23:07:45.487Z,22.42
2023-08-10T23:10:13.964Z,21.77
2023-08-10T23:12:42.413Z,21.13
2023-08-10T23:15:11.356Z,18.25
2023-08-10T23:17:39.847Z,19.38
2023-08-10T23:20:13.799Z,18.63
2023-08-10T23:22:42.558Z,19.88
2023-08-10T23:25:12.466Z,23.65
2023-08-10T23:27:41.284Z,19.45
2023-08-10T23:30:10.598Z,22.52
2023-08-10T23:32:39.141Z,21.25
2023-08-10T23:35:07.195Z,20.83
2023-08-10T23:37:39.413Z,23.17
2023-08-10T23:40:08.964Z,22.58
2023-08-10T23:42:37.581Z,29.98
2023-08-10T23:45:06.980Z,26.25
2023-08-10T23:47:35.751Z,22.80
2023-08-10T23:50:04.274Z,25.85
2023-08-10T23:52:34.602Z,22.85
2023-08-10T23:55:06.716Z,21.75
2023-08-10T23:57:35.235Z,22.57
